sensor_id;sensor_type;location;lat;lon;timestamp;P1;durP1;ratioP1;P2;durP2;ratioP2
40489;SDS011;26196;52.302;10.572;2023-04-30T00:03:10;3.33;;;1.67;;
40489;SDS011;26196;52.302;10.572;2023-04-30T00:07:11;3.70;;;1.10;;
40489;SDS011;26196;52.302;10.572;2023-04-30T00:11:11;3.15;;;0.90;;
40489;SDS011;26196;52.302;10.572;2023-04-30T00:15:11;2.27;;;1.40;;
40489;SDS011;26196;52.302;10.572;2023-04-30T00:19:12;2.07;;;0.90;;
40489;SDS011;26196;52.302;10.572;2023-04-30T00:23:12;4.25;;;1.23;;
40489;SDS011;26196;52.302;10.572;2023-04-30T00:27:13;3.78;;;1.10;;
40489;SDS011;26196;52.302;10.572;2023-04-30T00:31:14;2.97;;;0.90;;
40489;SDS011;26196;52.302;10.572;2023-04-30T00:39:52;5.60;;;1.20;;
40489;SDS011;26196;52.302;10.572;2023-04-30T00:43:52;3.47;;;1.00;;
40489;SDS011;26196;52.302;10.572;2023-04-30T00:47:52;1.43;;;0.80;;
40489;SDS011;26196;52.302;10.572;2023-04-30T00:51:53;1.77;;;0.85;;
40489;SDS011;26196;52.302;10.572;2023-04-30T00:55:53;1.85;;;1.13;;
40489;SDS011;26196;52.302;10.572;2023-04-30T00:59:54;2.22;;;0.63;;
40489;SDS011;26196;52.302;10.572;2023-04-30T01:03:55;3.78;;;0.98;;
40489;SDS011;26196;52.302;10.572;2023-04-30T01:07:55;1.20;;;0.50;;
40489;SDS011;26196;52.302;10.572;2023-04-30T01:16:18;1.58;;;0.68;;
40489;SDS011;26196;52.302;10.572;2023-04-30T01:20:25;2.38;;;0.85;;
40489;SDS011;26196;52.302;10.572;2023-04-30T01:28:46;3.00;;;0.65;;
40489;SDS011;26196;52.302;10.572;2023-04-30T01:37:30;3.70;;;0.80;;
40489;SDS011;26196;52.302;10.572;2023-04-30T01:41:44;1.52;;;0.52;;
40489;SDS011;26196;52.302;10.572;2023-04-30T01:54:37;2.17;;;0.70;;
40489;SDS011;26196;52.302;10.572;2023-04-30T01:58:40;4.65;;;1.75;;
40489;SDS011;26196;52.302;10.572;2023-04-30T02:02:42;1.13;;;0.52;;
40489;SDS011;26196;52.302;10.572;2023-04-30T02:11:22;2.78;;;0.93;;
40489;SDS011;26196;52.302;10.572;2023-04-30T02:15:23;2.90;;;0.77;;
40489;SDS011;26196;52.302;10.572;2023-04-30T02:19:23;1.77;;;0.75;;
40489;SDS011;26196;52.302;10.572;2023-04-30T02:23:24;2.10;;;0.63;;
40489;SDS011;26196;52.302;10.572;2023-04-30T02:31:59;2.05;;;0.60;;
40489;SDS011;26196;52.302;10.572;2023-04-30T02:36:00;1.75;;;0.73;;
40489;SDS011;26196;52.302;10.572;2023-04-30T02:44:35;2.97;;;1.20;;
40489;SDS011;26196;52.302;10.572;2023-04-30T02:48:35;0.85;;;0.43;;
40489;SDS011;26196;52.302;10.572;2023-04-30T02:52:36;1.83;;;0.53;;
40489;SDS011;26196;52.302;10.572;2023-04-30T03:01:11;1.83;;;0.70;;
40489;SDS011;26196;52.302;10.572;2023-04-30T03:05:12;3.40;;;0.73;;
40489;SDS011;26196;52.302;10.572;2023-04-30T03:09:14;2.47;;;0.65;;
40489;SDS011;26196;52.302;10.572;2023-04-30T03:13:15;2.97;;;0.60;;
40489;SDS011;26196;52.302;10.572;2023-04-30T03:21:50;1.05;;;0.90;;
40489;SDS011;26196;52.302;10.572;2023-04-30T03:25:51;1.23;;;0.60;;
40489;SDS011;26196;52.302;10.572;2023-04-30T03:34:26;0.65;;;0.45;;
40489;SDS011;26196;52.302;10.572;2023-04-30T03:43:04;1.13;;;0.95;;
40489;SDS011;26196;52.302;10.572;2023-04-30T03:51:41;2.38;;;0.65;;
40489;SDS011;26196;52.302;10.572;2023-04-30T03:55:41;1.17;;;0.40;;
40489;SDS011;26196;52.302;10.572;2023-04-30T03:59:42;1.95;;;0.40;;
40489;SDS011;26196;52.302;10.572;2023-04-30T04:03:42;1.30;;;0.60;;
40489;SDS011;26196;52.302;10.572;2023-04-30T04:07:43;2.47;;;0.60;;
40489;SDS011;26196;52.302;10.572;2023-04-30T04:16:18;2.35;;;0.50;;
40489;SDS011;26196;52.302;10.572;2023-04-30T04:20:18;1.60;;;0.80;;
40489;SDS011;26196;52.302;10.572;2023-04-30T04:32:56;0.50;;;0.40;;
40489;SDS011;26196;52.302;10.572;2023-04-30T04:41:31;4.50;;;1.05;;
40489;SDS011;26196;52.302;10.572;2023-04-30T04:50:08;1.92;;;0.68;;
40489;SDS011;26196;52.302;10.572;2023-04-30T04:54:08;1.50;;;0.70;;
40489;SDS011;26196;52.302;10.572;2023-04-30T05:07:23;0.87;;;0.70;;
40489;SDS011;26196;52.302;10.572;2023-04-30T05:11:24;0.93;;;0.50;;
40489;SDS011;26196;52.302;10.572;2023-04-30T05:19:58;2.40;;;0.70;;
40489;SDS011;26196;52.302;10.572;2023-04-30T05:23:59;1.70;;;0.70;;
40489;SDS011;26196;52.302;10.572;2023-04-30T05:32:34;1.67;;;0.82;;
40489;SDS011;26196;52.302;10.572;2023-04-30T05:41:10;1.65;;;0.70;;
40489;SDS011;26196;52.302;10.572;2023-04-30T05:45:13;3.03;;;0.70;;
40489;SDS011;26196;52.302;10.572;2023-04-30T05:53:50;3.22;;;0.90;;
40489;SDS011;26196;52.302;10.572;2023-04-30T05:57:50;2.67;;;0.73;;
40489;SDS011;26196;52.302;10.572;2023-04-30T06:06:47;3.53;;;0.93;;
40489;SDS011;26196;52.302;10.572;2023-04-30T06:10:48;2.73;;;0.90;;
40489;SDS011;26196;52.302;10.572;2023-04-30T06:14:50;2.55;;;0.68;;
40489;SDS011;26196;52.302;10.572;2023-04-30T06:23:25;2.88;;;1.20;;
40489;SDS011;26196;52.302;10.572;2023-04-30T06:27:26;3.15;;;1.20;;
40489;SDS011;26196;52.302;10.572;2023-04-30T06:36:02;6.20;;;1.88;;
40489;SDS011;26196;52.302;10.572;2023-04-30T06:40:03;3.50;;;1.17;;
40489;SDS011;26196;52.302;10.572;2023-04-30T06:44:05;1.83;;;1.00;;
40489;SDS011;26196;52.302;10.572;2023-04-30T06:52:42;4.03;;;1.60;;
40489;SDS011;26196;52.302;10.572;2023-04-30T06:56:43;3.30;;;1.23;;
40489;SDS011;26196;52.302;10.572;2023-04-30T07:05:40;4.13;;;1.83;;
40489;SDS011;26196;52.302;10.572;2023-04-30T07:09:40;3.17;;;1.10;;
40489;SDS011;26196;52.302;10.572;2023-04-30T07:13:41;3.60;;;1.00;;
40489;SDS011;26196;52.302;10.572;2023-04-30T07:26:55;12.27;;;2.35;;
40489;SDS011;26196;52.302;10.572;2023-04-30T07:30:56;4.18;;;1.80;;
40489;SDS011;26196;52.302;10.572;2023-04-30T07:34:56;6.93;;;2.17;;
40489;SDS011;26196;52.302;10.572;2023-04-30T07:38:57;4.47;;;1.73;;
40489;SDS011;26196;52.302;10.572;2023-04-30T07:42:57;5.33;;;1.60;;
40489;SDS011;26196;52.302;10.572;2023-04-30T07:46:57;5.03;;;1.38;;
40489;SDS011;26196;52.302;10.572;2023-04-30T07:50:58;7.60;;;1.77;;
40489;SDS011;26196;52.302;10.572;2023-04-30T07:54:58;5.17;;;1.77;;
40489;SDS011;26196;52.302;10.572;2023-04-30T08:12:45;6.97;;;1.80;;
40489;SDS011;26196;52.302;10.572;2023-04-30T08:16:46;3.47;;;2.13;;
40489;SDS011;26196;52.302;10.572;2023-04-30T08:20:46;3.50;;;1.40;;
40489;SDS011;26196;52.302;10.572;2023-04-30T08:24:47;10.18;;;1.98;;
40489;SDS011;26196;52.302;10.572;2023-04-30T08:33:23;5.13;;;1.90;;
40489;SDS011;26196;52.302;10.572;2023-04-30T08:37:23;4.37;;;1.23;;
40489;SDS011;26196;52.302;10.572;2023-04-30T08:41:24;5.60;;;1.73;;
40489;SDS011;26196;52.302;10.572;2023-04-30T08:45:25;4.13;;;1.60;;
40489;SDS011;26196;52.302;10.572;2023-04-30T08:54:01;4.10;;;1.52;;
40489;SDS011;26196;52.302;10.572;2023-04-30T08:58:02;6.57;;;1.40;;
40489;SDS011;26196;52.302;10.572;2023-04-30T09:11:42;5.28;;;1.65;;
40489;SDS011;26196;52.302;10.572;2023-04-30T09:24:59;3.65;;;1.30;;
40489;SDS011;26196;52.302;10.572;2023-04-30T09:33:44;6.40;;;1.73;;
40489;SDS011;26196;52.302;10.572;2023-04-30T09:37:45;4.05;;;1.30;;
40489;SDS011;26196;52.302;10.572;2023-04-30T09:41:45;4.63;;;1.43;;
40489;SDS011;26196;52.302;10.572;2023-04-30T09:45:46;6.22;;;1.63;;
40489;SDS011;26196;52.302;10.572;2023-04-30T09:49:50;3.75;;;1.48;;
40489;SDS011;26196;52.302;10.572;2023-04-30T09:58:28;6.25;;;1.48;;
40489;SDS011;26196;52.302;10.572;2023-04-30T10:02:34;3.40;;;1.65;;
40489;SDS011;26196;52.302;10.572;2023-04-30T12:03:41;1.50;;;0.93;;
40489;SDS011;26196;52.302;10.572;2023-04-30T12:07:43;5.47;;;1.30;;
40489;SDS011;26196;52.302;10.572;2023-04-30T12:11:47;2.28;;;1.00;;
40489;SDS011;26196;52.302;10.572;2023-04-30T12:15:57;3.58;;;1.40;;
40489;SDS011;26196;52.302;10.572;2023-04-30T12:19:58;4.72;;;2.00;;
40489;SDS011;26196;52.302;10.572;2023-04-30T12:23:59;3.00;;;1.65;;
40489;SDS011;26196;52.302;10.572;2023-04-30T12:28:00;3.58;;;2.25;;
40489;SDS011;26196;52.302;10.572;2023-04-30T12:32:00;5.78;;;2.70;;
40489;SDS011;26196;52.302;10.572;2023-04-30T12:36:00;4.55;;;2.10;;
40489;SDS011;26196;52.302;10.572;2023-04-30T12:40:01;2.50;;;1.57;;
40489;SDS011;26196;52.302;10.572;2023-04-30T12:44:14;2.95;;;1.50;;
40489;SDS011;26196;52.302;10.572;2023-04-30T12:48:23;2.80;;;1.67;;
40489;SDS011;26196;52.302;10.572;2023-04-30T12:52:25;3.40;;;1.48;;
40489;SDS011;26196;52.302;10.572;2023-04-30T12:56:25;4.45;;;2.08;;
40489;SDS011;26196;52.302;10.572;2023-04-30T13:00:26;3.20;;;1.00;;
40489;SDS011;26196;52.302;10.572;2023-04-30T13:04:26;2.33;;;1.20;;
40489;SDS011;26196;52.302;10.572;2023-04-30T13:08:28;3.90;;;1.70;;
40489;SDS011;26196;52.302;10.572;2023-04-30T13:12:29;3.47;;;1.40;;
40489;SDS011;26196;52.302;10.572;2023-04-30T13:16:30;4.15;;;2.03;;
40489;SDS011;26196;52.302;10.572;2023-04-30T13:20:30;5.25;;;1.80;;
40489;SDS011;26196;52.302;10.572;2023-04-30T13:24:31;3.83;;;1.63;;
40489;SDS011;26196;52.302;10.572;2023-04-30T13:28:31;3.03;;;1.38;;
40489;SDS011;26196;52.302;10.572;2023-04-30T13:32:31;3.90;;;1.40;;
40489;SDS011;26196;52.302;10.572;2023-04-30T13:36:32;7.30;;;1.45;;
40489;SDS011;26196;52.302;10.572;2023-04-30T13:40:32;10.35;;;2.00;;
40489;SDS011;26196;52.302;10.572;2023-04-30T13:44:33;3.30;;;1.42;;
40489;SDS011;26196;52.302;10.572;2023-04-30T13:48:34;2.25;;;1.60;;
40489;SDS011;26196;52.302;10.572;2023-04-30T13:52:35;3.70;;;1.45;;
40489;SDS011;26196;52.302;10.572;2023-04-30T13:56:35;5.20;;;2.20;;
40489;SDS011;26196;52.302;10.572;2023-04-30T14:00:36;2.47;;;1.00;;
40489;SDS011;26196;52.302;10.572;2023-04-30T14:04:36;3.07;;;1.23;;
40489;SDS011;26196;52.302;10.572;2023-04-30T14:08:37;1.67;;;0.95;;
40489;SDS011;26196;52.302;10.572;2023-04-30T14:12:37;1.70;;;1.13;;
40489;SDS011;26196;52.302;10.572;2023-04-30T14:16:38;4.22;;;1.00;;
40489;SDS011;26196;52.302;10.572;2023-04-30T14:20:38;11.02;;;1.40;;
40489;SDS011;26196;52.302;10.572;2023-04-30T14:24:39;8.20;;;2.03;;
40489;SDS011;26196;52.302;10.572;2023-04-30T14:28:40;4.40;;;1.70;;
40489;SDS011;26196;52.302;10.572;2023-04-30T14:32:40;4.60;;;1.83;;
40489;SDS011;26196;52.302;10.572;2023-04-30T14:36:40;4.13;;;1.40;;
40489;SDS011;26196;52.302;10.572;2023-04-30T14:40:42;5.78;;;1.88;;
40489;SDS011;26196;52.302;10.572;2023-04-30T14:44:43;6.97;;;1.73;;
40489;SDS011;26196;52.302;10.572;2023-04-30T14:48:43;3.10;;;1.20;;
40489;SDS011;26196;52.302;10.572;2023-04-30T14:52:44;4.57;;;1.42;;
40489;SDS011;26196;52.302;10.572;2023-04-30T14:56:46;3.22;;;1.25;;
40489;SDS011;26196;52.302;10.572;2023-04-30T15:00:46;5.72;;;2.30;;
40489;SDS011;26196;52.302;10.572;2023-04-30T15:04:50;5.15;;;1.60;;
40489;SDS011;26196;52.302;10.572;2023-04-30T15:08:50;11.27;;;2.08;;
40489;SDS011;26196;52.302;10.572;2023-04-30T15:12:51;4.15;;;1.25;;
40489;SDS011;26196;52.302;10.572;2023-04-30T15:16:52;5.57;;;1.70;;
40489;SDS011;26196;52.302;10.572;2023-04-30T15:20:53;4.68;;;1.52;;
40489;SDS011;26196;52.302;10.572;2023-04-30T15:24:53;7.93;;;1.33;;
40489;SDS011;26196;52.302;10.572;2023-04-30T15:28:55;9.27;;;1.25;;
40489;SDS011;26196;52.302;10.572;2023-04-30T15:32:55;5.47;;;1.90;;
40489;SDS011;26196;52.302;10.572;2023-04-30T15:36:56;4.65;;;1.40;;
40489;SDS011;26196;52.302;10.572;2023-04-30T15:40:58;4.72;;;1.77;;
40489;SDS011;26196;52.302;10.572;2023-04-30T15:44:58;2.50;;;1.33;;
40489;SDS011;26196;52.302;10.572;2023-04-30T15:48:58;4.03;;;1.37;;
40489;SDS011;26196;52.302;10.572;2023-04-30T15:52:59;2.47;;;1.20;;
40489;SDS011;26196;52.302;10.572;2023-04-30T15:56:59;3.97;;;1.33;;
40489;SDS011;26196;52.302;10.572;2023-04-30T16:00:59;2.75;;;1.60;;
40489;SDS011;26196;52.302;10.572;2023-04-30T16:05:00;4.35;;;1.15;;
40489;SDS011;26196;52.302;10.572;2023-04-30T16:09:01;3.05;;;1.08;;
40489;SDS011;26196;52.302;10.572;2023-04-30T16:13:06;5.53;;;1.37;;
40489;SDS011;26196;52.302;10.572;2023-04-30T16:17:07;4.35;;;0.90;;
40489;SDS011;26196;52.302;10.572;2023-04-30T16:21:08;2.90;;;1.15;;
40489;SDS011;26196;52.302;10.572;2023-04-30T16:25:09;3.00;;;1.00;;
40489;SDS011;26196;52.302;10.572;2023-04-30T16:29:09;1.73;;;1.15;;
40489;SDS011;26196;52.302;10.572;2023-04-30T16:33:10;2.27;;;0.80;;
40489;SDS011;26196;52.302;10.572;2023-04-30T16:37:10;2.75;;;1.20;;
40489;SDS011;26196;52.302;10.572;2023-04-30T16:41:14;3.42;;;1.50;;
40489;SDS011;26196;52.302;10.572;2023-04-30T16:45:16;2.05;;;1.20;;
40489;SDS011;26196;52.302;10.572;2023-04-30T16:49:16;4.60;;;1.35;;
40489;SDS011;26196;52.302;10.572;2023-04-30T16:53:16;4.65;;;1.30;;
40489;SDS011;26196;52.302;10.572;2023-04-30T16:57:17;2.63;;;1.20;;
40489;SDS011;26196;52.302;10.572;2023-04-30T17:01:17;2.60;;;1.55;;
40489;SDS011;26196;52.302;10.572;2023-04-30T17:05:18;4.20;;;1.80;;
40489;SDS011;26196;52.302;10.572;2023-04-30T17:09:19;3.58;;;1.10;;
40489;SDS011;26196;52.302;10.572;2023-04-30T17:13:19;2.08;;;1.10;;
40489;SDS011;26196;52.302;10.572;2023-04-30T17:17:20;1.60;;;1.00;;
40489;SDS011;26196;52.302;10.572;2023-04-30T17:21:20;3.92;;;1.25;;
40489;SDS011;26196;52.302;10.572;2023-04-30T17:25:21;2.72;;;1.17;;
40489;SDS011;26196;52.302;10.572;2023-04-30T17:29:21;3.15;;;1.48;;
40489;SDS011;26196;52.302;10.572;2023-04-30T17:33:22;3.63;;;1.10;;
40489;SDS011;26196;52.302;10.572;2023-04-30T17:37:24;2.38;;;1.20;;
40489;SDS011;26196;52.302;10.572;2023-04-30T17:41:28;3.75;;;1.40;;
40489;SDS011;26196;52.302;10.572;2023-04-30T17:45:28;2.45;;;1.50;;
40489;SDS011;26196;52.302;10.572;2023-04-30T17:49:28;5.03;;;1.50;;
40489;SDS011;26196;52.302;10.572;2023-04-30T17:53:29;3.78;;;1.20;;
40489;SDS011;26196;52.302;10.572;2023-04-30T17:57:29;1.85;;;1.17;;
40489;SDS011;26196;52.302;10.572;2023-04-30T18:01:30;2.75;;;1.30;;
40489;SDS011;26196;52.302;10.572;2023-04-30T18:05:30;3.50;;;1.52;;
40489;SDS011;26196;52.302;10.572;2023-04-30T18:09:32;3.30;;;1.27;;
40489;SDS011;26196;52.302;10.572;2023-04-30T18:13:32;3.45;;;1.45;;
40489;SDS011;26196;52.302;10.572;2023-04-30T18:17:33;2.10;;;0.90;;
40489;SDS011;26196;52.302;10.572;2023-04-30T18:21:34;1.88;;;1.00;;
40489;SDS011;26196;52.302;10.572;2023-04-30T18:25:34;2.47;;;0.93;;
40489;SDS011;26196;52.302;10.572;2023-04-30T18:29:36;2.78;;;1.15;;
40489;SDS011;26196;52.302;10.572;2023-04-30T18:33:36;1.90;;;1.25;;
40489;SDS011;26196;52.302;10.572;2023-04-30T18:37:36;2.22;;;1.35;;
40489;SDS011;26196;52.302;10.572;2023-04-30T18:41:37;5.90;;;2.28;;
40489;SDS011;26196;52.302;10.572;2023-04-30T18:45:37;3.23;;;1.30;;
40489;SDS011;26196;52.302;10.572;2023-04-30T18:49:37;4.53;;;1.33;;
40489;SDS011;26196;52.302;10.572;2023-04-30T18:53:38;3.22;;;1.13;;
40489;SDS011;26196;52.302;10.572;2023-04-30T18:57:40;3.72;;;1.60;;
40489;SDS011;26196;52.302;10.572;2023-04-30T19:01:42;3.90;;;1.58;;
40489;SDS011;26196;52.302;10.572;2023-04-30T19:05:42;3.63;;;2.60;;
40489;SDS011;26196;52.302;10.572;2023-04-30T19:09:43;3.55;;;1.48;;
40489;SDS011;26196;52.302;10.572;2023-04-30T19:13:44;5.07;;;1.38;;
40489;SDS011;26196;52.302;10.572;2023-04-30T19:17:45;2.78;;;1.30;;
40489;SDS011;26196;52.302;10.572;2023-04-30T19:21:46;3.95;;;1.88;;
40489;SDS011;26196;52.302;10.572;2023-04-30T19:25:47;4.13;;;2.00;;
40489;SDS011;26196;52.302;10.572;2023-04-30T19:29:48;4.93;;;2.40;;
40489;SDS011;26196;52.302;10.572;2023-04-30T19:33:50;4.70;;;2.20;;
40489;SDS011;26196;52.302;10.572;2023-04-30T19:37:50;3.95;;;1.77;;
40489;SDS011;26196;52.302;10.572;2023-04-30T19:41:50;3.67;;;2.60;;
40489;SDS011;26196;52.302;10.572;2023-04-30T19:45:51;6.93;;;3.47;;
40489;SDS011;26196;52.302;10.572;2023-04-30T19:49:53;5.00;;;2.53;;
40489;SDS011;26196;52.302;10.572;2023-04-30T19:53:54;4.07;;;2.10;;
40489;SDS011;26196;52.302;10.572;2023-04-30T19:57:54;5.18;;;2.22;;
40489;SDS011;26196;52.302;10.572;2023-04-30T20:01:54;3.80;;;2.40;;
40489;SDS011;26196;52.302;10.572;2023-04-30T20:05:55;5.80;;;2.78;;
40489;SDS011;26196;52.302;10.572;2023-04-30T20:09:55;5.57;;;3.10;;
40489;SDS011;26196;52.302;10.572;2023-04-30T20:13:56;5.70;;;3.25;;
40489;SDS011;26196;52.302;10.572;2023-04-30T20:17:56;5.63;;;3.50;;
40489;SDS011;26196;52.302;10.572;2023-04-30T20:21:57;4.50;;;3.00;;
40489;SDS011;26196;52.302;10.572;2023-04-30T20:25:57;6.60;;;2.88;;
40489;SDS011;26196;52.302;10.572;2023-04-30T20:29:58;7.70;;;3.00;;
40489;SDS011;26196;52.302;10.572;2023-04-30T20:34:00;4.75;;;2.00;;
40489;SDS011;26196;52.302;10.572;2023-04-30T20:38:01;5.30;;;2.67;;
40489;SDS011;26196;52.302;10.572;2023-04-30T20:42:02;4.22;;;2.28;;
40489;SDS011;26196;52.302;10.572;2023-04-30T20:46:02;3.25;;;1.70;;
40489;SDS011;26196;52.302;10.572;2023-04-30T20:50:03;3.38;;;2.10;;
40489;SDS011;26196;52.302;10.572;2023-04-30T20:54:04;4.25;;;1.83;;
40489;SDS011;26196;52.302;10.572;2023-04-30T20:58:04;2.80;;;1.83;;
40489;SDS011;26196;52.302;10.572;2023-04-30T21:02:05;5.20;;;2.00;;
40489;SDS011;26196;52.302;10.572;2023-04-30T21:06:06;4.68;;;2.22;;
40489;SDS011;26196;52.302;10.572;2023-04-30T21:10:07;2.40;;;2.20;;
40489;SDS011;26196;52.302;10.572;2023-04-30T21:14:07;3.25;;;1.80;;
40489;SDS011;26196;52.302;10.572;2023-04-30T21:18:08;5.45;;;2.30;;
40489;SDS011;26196;52.302;10.572;2023-04-30T21:22:08;3.78;;;2.15;;
40489;SDS011;26196;52.302;10.572;2023-04-30T21:26:09;5.43;;;2.58;;
40489;SDS011;26196;52.302;10.572;2023-04-30T21:30:11;5.90;;;2.15;;
40489;SDS011;26196;52.302;10.572;2023-04-30T21:34:14;3.25;;;2.00;;
40489;SDS011;26196;52.302;10.572;2023-04-30T21:38:14;3.40;;;2.43;;
40489;SDS011;26196;52.302;10.572;2023-04-30T21:42:15;3.67;;;1.98;;
40489;SDS011;26196;52.302;10.572;2023-04-30T21:46:15;3.17;;;2.17;;
40489;SDS011;26196;52.302;10.572;2023-04-30T21:50:16;5.45;;;2.08;;
40489;SDS011;26196;52.302;10.572;2023-04-30T21:54:16;4.80;;;2.05;;
40489;SDS011;26196;52.302;10.572;2023-04-30T21:58:18;3.25;;;2.05;;
40489;SDS011;26196;52.302;10.572;2023-04-30T22:02:18;3.28;;;2.25;;
40489;SDS011;26196;52.302;10.572;2023-04-30T22:06:19;4.65;;;2.30;;
40489;SDS011;26196;52.302;10.572;2023-04-30T22:10:19;3.33;;;1.80;;
40489;SDS011;26196;52.302;10.572;2023-04-30T22:14:20;3.45;;;2.15;;
40489;SDS011;26196;52.302;10.572;2023-04-30T22:18:20;4.22;;;2.05;;
40489;SDS011;26196;52.302;10.572;2023-04-30T22:22:22;3.70;;;2.15;;
40489;SDS011;26196;52.302;10.572;2023-04-30T22:26:23;4.50;;;2.00;;
40489;SDS011;26196;52.302;10.572;2023-04-30T22:30:24;3.53;;;1.80;;
40489;SDS011;26196;52.302;10.572;2023-04-30T22:34:24;4.68;;;3.72;;
40489;SDS011;26196;52.302;10.572;2023-04-30T22:38:25;3.58;;;1.90;;
40489;SDS011;26196;52.302;10.572;2023-04-30T22:42:25;2.05;;;1.50;;
40489;SDS011;26196;52.302;10.572;2023-04-30T22:46:26;3.13;;;1.80;;
40489;SDS011;26196;52.302;10.572;2023-04-30T22:50:26;3.17;;;1.70;;
40489;SDS011;26196;52.302;10.572;2023-04-30T22:54:26;2.88;;;1.67;;
40489;SDS011;26196;52.302;10.572;2023-04-30T22:58:27;2.42;;;1.60;;
40489;SDS011;26196;52.302;10.572;2023-04-30T23:02:27;3.80;;;2.07;;
40489;SDS011;26196;52.302;10.572;2023-04-30T23:06:28;3.35;;;1.60;;
40489;SDS011;26196;52.302;10.572;2023-04-30T23:10:29;3.05;;;1.95;;
40489;SDS011;26196;52.302;10.572;2023-04-30T23:14:29;3.38;;;1.63;;
40489;SDS011;26196;52.302;10.572;2023-04-30T23:18:30;2.58;;;1.92;;
40489;SDS011;26196;52.302;10.572;2023-04-30T23:22:31;2.40;;;1.70;;
40489;SDS011;26196;52.302;10.572;2023-04-30T23:26:31;5.68;;;2.17;;
40489;SDS011;26196;52.302;10.572;2023-04-30T23:30:32;4.30;;;2.15;;
40489;SDS011;26196;52.302;10.572;2023-04-30T23:34:36;2.92;;;1.60;;
40489;SDS011;26196;52.302;10.572;2023-04-30T23:38:36;4.10;;;1.70;;
40489;SDS011;26196;52.302;10.572;2023-04-30T23:42:36;3.17;;;2.13;;
40489;SDS011;26196;52.302;10.572;2023-04-30T23:46:37;3.05;;;1.75;;
40489;SDS011;26196;52.302;10.572;2023-04-30T23:50:37;2.60;;;1.70;;
40489;SDS011;26196;52.302;10.572;2023-04-30T23:54:37;4.20;;;1.67;;
40489;SDS011;26196;52.302;10.572;2023-04-30T23:58:38;3.93;;;2.07;;
